Terminal Aerodrome Forecast
Issued by NWS

Home | Current Version | Previous Version | Text Only | Print | Product List | Glossary On
Versions: 1 2 3 4 5 6 7 8 9 10 11 12 13 14 15 16 17
903
FTUS41 KBGM 091140
TAFELM
TAF
KELM 091140Z 0912/1012 15005KT P6SM OVC015
     FM091500 17006KT P6SM OVC025
      TEMPO 0921/0924 1 1/2SM -SN SCT008 OVC015
     FM100000 23003KT 1 1/2SM -SN SCT008 OVC012
     FM100300 25003KT P6SM BKN050=

USA.gov is the U.S. government's official web portal to all federal, state and local government web resources and services.